sensor_id;sensor_type;location;lat;lon;timestamp;P1;durP1;ratioP1;P2;durP2;ratioP2
20589;SDS011;10453;50.810;12.540;2024-01-30T00:01:22;11.00;;;5.22;;
20589;SDS011;10453;50.810;12.540;2024-01-30T00:05:39;9.97;;;5.17;;
20589;SDS011;10453;50.810;12.540;2024-01-30T00:09:57;11.50;;;5.35;;
20589;SDS011;10453;50.810;12.540;2024-01-30T00:14:14;9.85;;;5.45;;
20589;SDS011;10453;50.810;12.540;2024-01-30T00:18:37;9.02;;;5.13;;
20589;SDS011;10453;50.810;12.540;2024-01-30T00:22:55;8.88;;;4.95;;
20589;SDS011;10453;50.810;12.540;2024-01-30T00:27:13;8.68;;;5.25;;
20589;SDS011;10453;50.810;12.540;2024-01-30T00:31:31;11.43;;;4.80;;
20589;SDS011;10453;50.810;12.540;2024-01-30T00:35:48;6.47;;;4.32;;
20589;SDS011;10453;50.810;12.540;2024-01-30T00:40:07;9.45;;;4.72;;
20589;SDS011;10453;50.810;12.540;2024-01-30T00:44:27;8.27;;;4.10;;
20589;SDS011;10453;50.810;12.540;2024-01-30T00:48:44;8.10;;;5.13;;
20589;SDS011;10453;50.810;12.540;2024-01-30T00:53:01;7.80;;;4.40;;
20589;SDS011;10453;50.810;12.540;2024-01-30T00:57:19;6.47;;;3.93;;
20589;SDS011;10453;50.810;12.540;2024-01-30T01:01:36;12.25;;;4.70;;
20589;SDS011;10453;50.810;12.540;2024-01-30T01:05:53;8.53;;;4.03;;
20589;SDS011;10453;50.810;12.540;2024-01-30T01:10:10;6.32;;;3.72;;
20589;SDS011;10453;50.810;12.540;2024-01-30T01:14:30;6.72;;;3.50;;
20589;SDS011;10453;50.810;12.540;2024-01-30T01:18:47;7.80;;;4.05;;
20589;SDS011;10453;50.810;12.540;2024-01-30T01:23:05;6.90;;;3.77;;
20589;SDS011;10453;50.810;12.540;2024-01-30T01:27:22;6.07;;;3.70;;
20589;SDS011;10453;50.810;12.540;2024-01-30T01:31:39;7.63;;;4.15;;
20589;SDS011;10453;50.810;12.540;2024-01-30T01:36:00;6.40;;;3.75;;
20589;SDS011;10453;50.810;12.540;2024-01-30T01:40:22;6.00;;;3.67;;
20589;SDS011;10453;50.810;12.540;2024-01-30T01:44:39;7.18;;;3.80;;
20589;SDS011;10453;50.810;12.540;2024-01-30T01:48:56;6.63;;;3.63;;
20589;SDS011;10453;50.810;12.540;2024-01-30T01:53:14;7.80;;;4.00;;
20589;SDS011;10453;50.810;12.540;2024-01-30T01:57:33;5.80;;;3.47;;
20589;SDS011;10453;50.810;12.540;2024-01-30T02:06:08;5.77;;;3.63;;
20589;SDS011;10453;50.810;12.540;2024-01-30T02:10:26;9.93;;;3.30;;
20589;SDS011;10453;50.810;12.540;2024-01-30T02:14:46;5.90;;;3.38;;
20589;SDS011;10453;50.810;12.540;2024-01-30T02:19:04;4.93;;;3.25;;
20589;SDS011;10453;50.810;12.540;2024-01-30T02:23:23;5.65;;;3.38;;
20589;SDS011;10453;50.810;12.540;2024-01-30T02:27:43;6.80;;;3.22;;
20589;SDS011;10453;50.810;12.540;2024-01-30T02:32:01;6.28;;;3.08;;
20589;SDS011;10453;50.810;12.540;2024-01-30T02:36:18;7.00;;;4.05;;
20589;SDS011;10453;50.810;12.540;2024-01-30T02:45:01;6.88;;;3.22;;
20589;SDS011;10453;50.810;12.540;2024-01-30T02:49:18;6.32;;;3.03;;
20589;SDS011;10453;50.810;12.540;2024-01-30T02:53:36;5.60;;;3.57;;
20589;SDS011;10453;50.810;12.540;2024-01-30T02:57:53;6.63;;;3.38;;
20589;SDS011;10453;50.810;12.540;2024-01-30T03:02:10;9.50;;;3.37;;
20589;SDS011;10453;50.810;12.540;2024-01-30T03:06:28;7.57;;;3.50;;
20589;SDS011;10453;50.810;12.540;2024-01-30T03:10:46;8.33;;;3.57;;
20589;SDS011;10453;50.810;12.540;2024-01-30T03:15:04;4.43;;;2.80;;
20589;SDS011;10453;50.810;12.540;2024-01-30T03:19:21;4.22;;;2.67;;
20589;SDS011;10453;50.810;12.540;2024-01-30T03:23:39;5.55;;;3.30;;
20589;SDS011;10453;50.810;12.540;2024-01-30T03:27:56;5.03;;;3.07;;
20589;SDS011;10453;50.810;12.540;2024-01-30T03:32:14;4.93;;;2.70;;
20589;SDS011;10453;50.810;12.540;2024-01-30T03:36:31;4.35;;;3.05;;
20589;SDS011;10453;50.810;12.540;2024-01-30T03:40:51;4.55;;;3.28;;
20589;SDS011;10453;50.810;12.540;2024-01-30T03:45:08;4.82;;;2.72;;
20589;SDS011;10453;50.810;12.540;2024-01-30T03:49:26;4.63;;;2.97;;
20589;SDS011;10453;50.810;12.540;2024-01-30T03:53:43;7.40;;;3.10;;
20589;SDS011;10453;50.810;12.540;2024-01-30T03:58:02;4.70;;;3.17;;
20589;SDS011;10453;50.810;12.540;2024-01-30T04:02:20;7.78;;;3.30;;
20589;SDS011;10453;50.810;12.540;2024-01-30T04:06:38;5.50;;;3.03;;
20589;SDS011;10453;50.810;12.540;2024-01-30T04:10:55;6.07;;;3.47;;
20589;SDS011;10453;50.810;12.540;2024-01-30T04:15:12;6.30;;;2.90;;
20589;SDS011;10453;50.810;12.540;2024-01-30T04:19:31;3.55;;;2.55;;
20589;SDS011;10453;50.810;12.540;2024-01-30T04:23:50;4.07;;;2.70;;
20589;SDS011;10453;50.810;12.540;2024-01-30T04:28:08;5.43;;;3.30;;
20589;SDS011;10453;50.810;12.540;2024-01-30T04:32:26;8.10;;;3.20;;
20589;SDS011;10453;50.810;12.540;2024-01-30T04:36:46;4.47;;;2.85;;
20589;SDS011;10453;50.810;12.540;2024-01-30T04:41:03;7.18;;;2.85;;
20589;SDS011;10453;50.810;12.540;2024-01-30T04:45:21;4.83;;;2.90;;
20589;SDS011;10453;50.810;12.540;2024-01-30T04:49:39;4.20;;;2.75;;
20589;SDS011;10453;50.810;12.540;2024-01-30T04:53:56;3.90;;;2.80;;
20589;SDS011;10453;50.810;12.540;2024-01-30T04:58:14;4.47;;;2.90;;
20589;SDS011;10453;50.810;12.540;2024-01-30T05:02:31;6.47;;;3.10;;
20589;SDS011;10453;50.810;12.540;2024-01-30T05:06:48;6.67;;;2.87;;
20589;SDS011;10453;50.810;12.540;2024-01-30T05:11:06;6.07;;;3.07;;
20589;SDS011;10453;50.810;12.540;2024-01-30T05:15:23;5.00;;;3.17;;
20589;SDS011;10453;50.810;12.540;2024-01-30T05:19:40;5.83;;;3.53;;
20589;SDS011;10453;50.810;12.540;2024-01-30T05:23:57;6.03;;;3.37;;
20589;SDS011;10453;50.810;12.540;2024-01-30T05:28:15;4.73;;;3.43;;
20589;SDS011;10453;50.810;12.540;2024-01-30T05:32:32;5.63;;;2.90;;
20589;SDS011;10453;50.810;12.540;2024-01-30T05:36:50;6.10;;;3.63;;
20589;SDS011;10453;50.810;12.540;2024-01-30T05:41:08;6.55;;;4.07;;
20589;SDS011;10453;50.810;12.540;2024-01-30T05:45:26;5.93;;;3.58;;
20589;SDS011;10453;50.810;12.540;2024-01-30T05:49:43;4.67;;;3.27;;
20589;SDS011;10453;50.810;12.540;2024-01-30T05:54:00;5.83;;;3.53;;
20589;SDS011;10453;50.810;12.540;2024-01-30T05:58:20;4.50;;;3.30;;
20589;SDS011;10453;50.810;12.540;2024-01-30T06:02:38;8.20;;;3.78;;
20589;SDS011;10453;50.810;12.540;2024-01-30T06:06:55;4.70;;;3.20;;
20589;SDS011;10453;50.810;12.540;2024-01-30T06:11:13;8.53;;;3.97;;
20589;SDS011;10453;50.810;12.540;2024-01-30T06:15:31;7.80;;;4.97;;
20589;SDS011;10453;50.810;12.540;2024-01-30T06:19:49;11.68;;;5.47;;
20589;SDS011;10453;50.810;12.540;2024-01-30T06:24:07;11.77;;;5.65;;
20589;SDS011;10453;50.810;12.540;2024-01-30T06:28:24;13.43;;;6.93;;
20589;SDS011;10453;50.810;12.540;2024-01-30T06:32:41;16.23;;;5.80;;
20589;SDS011;10453;50.810;12.540;2024-01-30T06:36:59;6.03;;;4.13;;
20589;SDS011;10453;50.810;12.540;2024-01-30T06:41:16;8.17;;;4.10;;
20589;SDS011;10453;50.810;12.540;2024-01-30T06:45:34;7.80;;;3.95;;
20589;SDS011;10453;50.810;12.540;2024-01-30T06:49:52;6.15;;;3.92;;
20589;SDS011;10453;50.810;12.540;2024-01-30T06:54:10;8.87;;;5.00;;
20589;SDS011;10453;50.810;12.540;2024-01-30T06:58:27;8.17;;;4.70;;
20589;SDS011;10453;50.810;12.540;2024-01-30T07:02:44;8.03;;;4.53;;
20589;SDS011;10453;50.810;12.540;2024-01-30T07:07:02;8.30;;;4.65;;
20589;SDS011;10453;50.810;12.540;2024-01-30T07:11:21;8.57;;;4.70;;
20589;SDS011;10453;50.810;12.540;2024-01-30T07:15:40;11.30;;;5.28;;
20589;SDS011;10453;50.810;12.540;2024-01-30T07:19:57;10.50;;;5.77;;
20589;SDS011;10453;50.810;12.540;2024-01-30T07:24:15;11.87;;;6.37;;
20589;SDS011;10453;50.810;12.540;2024-01-30T07:28:34;11.40;;;6.40;;
20589;SDS011;10453;50.810;12.540;2024-01-30T07:32:51;10.83;;;5.70;;
20589;SDS011;10453;50.810;12.540;2024-01-30T07:37:08;12.85;;;6.13;;
20589;SDS011;10453;50.810;12.540;2024-01-30T07:41:27;11.68;;;6.20;;
20589;SDS011;10453;50.810;12.540;2024-01-30T07:45:44;12.15;;;6.38;;
20589;SDS011;10453;50.810;12.540;2024-01-30T07:50:02;13.90;;;7.60;;
20589;SDS011;10453;50.810;12.540;2024-01-30T07:54:19;13.40;;;6.90;;
20589;SDS011;10453;50.810;12.540;2024-01-30T07:58:37;13.20;;;6.90;;
20589;SDS011;10453;50.810;12.540;2024-01-30T08:02:54;14.37;;;7.17;;
20589;SDS011;10453;50.810;12.540;2024-01-30T08:07:12;11.73;;;6.80;;
20589;SDS011;10453;50.810;12.540;2024-01-30T08:11:29;11.30;;;7.50;;
20589;SDS011;10453;50.810;12.540;2024-01-30T08:20:05;15.95;;;7.05;;
20589;SDS011;10453;50.810;12.540;2024-01-30T08:24:25;14.13;;;6.97;;
20589;SDS011;10453;50.810;12.540;2024-01-30T08:28:42;12.05;;;6.65;;
20589;SDS011;10453;50.810;12.540;2024-01-30T08:32:59;12.50;;;7.22;;
20589;SDS011;10453;50.810;12.540;2024-01-30T08:37:17;11.77;;;6.75;;
20589;SDS011;10453;50.810;12.540;2024-01-30T08:41:34;11.27;;;6.85;;
20589;SDS011;10453;50.810;12.540;2024-01-30T08:45:51;15.15;;;6.60;;
20589;SDS011;10453;50.810;12.540;2024-01-30T08:50:09;12.32;;;6.32;;
20589;SDS011;10453;50.810;12.540;2024-01-30T08:54:27;12.80;;;5.70;;
20589;SDS011;10453;50.810;12.540;2024-01-30T08:58:44;11.63;;;5.53;;
20589;SDS011;10453;50.810;12.540;2024-01-30T09:03:01;8.63;;;5.18;;
20589;SDS011;10453;50.810;12.540;2024-01-30T09:07:19;10.03;;;6.00;;
20589;SDS011;10453;50.810;12.540;2024-01-30T09:11:37;9.25;;;6.55;;
20589;SDS011;10453;50.810;12.540;2024-01-30T09:15:54;12.85;;;6.72;;
20589;SDS011;10453;50.810;12.540;2024-01-30T09:20:12;12.88;;;7.53;;
20589;SDS011;10453;50.810;12.540;2024-01-30T09:24:30;14.88;;;7.78;;
20589;SDS011;10453;50.810;12.540;2024-01-30T09:28:47;11.88;;;6.45;;
20589;SDS011;10453;50.810;12.540;2024-01-30T09:33:04;11.63;;;6.22;;
20589;SDS011;10453;50.810;12.540;2024-01-30T09:37:23;10.10;;;5.63;;
20589;SDS011;10453;50.810;12.540;2024-01-30T09:41:44;9.30;;;5.22;;
20589;SDS011;10453;50.810;12.540;2024-01-30T09:46:06;8.65;;;5.03;;
20589;SDS011;10453;50.810;12.540;2024-01-30T09:50:28;10.23;;;6.53;;
20589;SDS011;10453;50.810;12.540;2024-01-30T09:54:46;13.63;;;7.60;;
20589;SDS011;10453;50.810;12.540;2024-01-30T09:59:06;11.38;;;6.40;;
20589;SDS011;10453;50.810;12.540;2024-01-30T10:03:23;11.50;;;5.45;;
20589;SDS011;10453;50.810;12.540;2024-01-30T10:07:49;7.97;;;5.20;;
20589;SDS011;10453;50.810;12.540;2024-01-30T10:12:09;6.97;;;4.95;;
20589;SDS011;10453;50.810;12.540;2024-01-30T10:16:27;9.25;;;5.47;;
20589;SDS011;10453;50.810;12.540;2024-01-30T10:20:45;11.57;;;5.57;;
20589;SDS011;10453;50.810;12.540;2024-01-30T10:25:03;13.68;;;6.13;;
20589;SDS011;10453;50.810;12.540;2024-01-30T10:29:22;8.45;;;5.97;;
20589;SDS011;10453;50.810;12.540;2024-01-30T10:33:40;9.15;;;5.85;;
20589;SDS011;10453;50.810;12.540;2024-01-30T10:37:57;10.77;;;6.50;;
20589;SDS011;10453;50.810;12.540;2024-01-30T10:42:17;10.00;;;6.05;;
20589;SDS011;10453;50.810;12.540;2024-01-30T10:46:35;9.27;;;6.15;;
20589;SDS011;10453;50.810;12.540;2024-01-30T10:50:58;14.23;;;6.20;;
20589;SDS011;10453;50.810;12.540;2024-01-30T10:55:17;10.05;;;6.15;;
20589;SDS011;10453;50.810;12.540;2024-01-30T10:59:35;10.43;;;6.43;;
20589;SDS011;10453;50.810;12.540;2024-01-30T11:03:54;11.07;;;6.27;;
20589;SDS011;10453;50.810;12.540;2024-01-30T11:08:13;12.15;;;6.38;;
20589;SDS011;10453;50.810;12.540;2024-01-30T11:12:31;10.18;;;6.28;;
20589;SDS011;10453;50.810;12.540;2024-01-30T11:16:52;9.30;;;6.45;;
20589;SDS011;10453;50.810;12.540;2024-01-30T11:21:09;9.57;;;6.43;;
20589;SDS011;10453;50.810;12.540;2024-01-30T11:25:30;11.35;;;5.97;;
20589;SDS011;10453;50.810;12.540;2024-01-30T11:29:49;10.50;;;6.55;;
20589;SDS011;10453;50.810;12.540;2024-01-30T11:34:09;10.23;;;6.40;;
20589;SDS011;10453;50.810;12.540;2024-01-30T11:38:29;9.57;;;6.85;;
20589;SDS011;10453;50.810;12.540;2024-01-30T11:42:47;12.77;;;7.50;;
20589;SDS011;10453;50.810;12.540;2024-01-30T11:47:06;10.35;;;6.88;;
20589;SDS011;10453;50.810;12.540;2024-01-30T11:51:23;10.13;;;6.53;;
20589;SDS011;10453;50.810;12.540;2024-01-30T11:55:41;10.15;;;6.47;;
20589;SDS011;10453;50.810;12.540;2024-01-30T12:00:00;7.55;;;6.22;;
20589;SDS011;10453;50.810;12.540;2024-01-30T12:04:17;13.05;;;6.75;;
20589;SDS011;10453;50.810;12.540;2024-01-30T12:08:36;9.57;;;6.50;;
20589;SDS011;10453;50.810;12.540;2024-01-30T12:12:53;10.38;;;6.25;;
20589;SDS011;10453;50.810;12.540;2024-01-30T12:17:12;9.27;;;6.35;;
20589;SDS011;10453;50.810;12.540;2024-01-30T12:21:47;12.15;;;6.82;;
20589;SDS011;10453;50.810;12.540;2024-01-30T12:26:13;9.85;;;6.30;;
20589;SDS011;10453;50.810;12.540;2024-01-30T12:30:31;13.20;;;6.18;;
20589;SDS011;10453;50.810;12.540;2024-01-30T12:34:48;10.48;;;6.63;;
20589;SDS011;10453;50.810;12.540;2024-01-30T12:39:16;10.83;;;7.00;;
20589;SDS011;10453;50.810;12.540;2024-01-30T12:43:34;8.75;;;5.85;;
20589;SDS011;10453;50.810;12.540;2024-01-30T12:47:55;9.02;;;6.13;;
20589;SDS011;10453;50.810;12.540;2024-01-30T12:52:13;10.77;;;6.60;;
20589;SDS011;10453;50.810;12.540;2024-01-30T12:56:32;8.27;;;6.15;;
20589;SDS011;10453;50.810;12.540;2024-01-30T13:00:50;9.23;;;6.72;;
20589;SDS011;10453;50.810;12.540;2024-01-30T13:05:07;11.55;;;6.55;;
20589;SDS011;10453;50.810;12.540;2024-01-30T13:09:25;13.77;;;6.82;;
20589;SDS011;10453;50.810;12.540;2024-01-30T13:13:42;10.65;;;6.28;;
20589;SDS011;10453;50.810;12.540;2024-01-30T13:18:00;12.05;;;7.00;;
20589;SDS011;10453;50.810;12.540;2024-01-30T13:22:17;9.60;;;6.72;;
20589;SDS011;10453;50.810;12.540;2024-01-30T13:26:35;10.85;;;7.28;;
20589;SDS011;10453;50.810;12.540;2024-01-30T13:30:53;11.98;;;7.45;;
20589;SDS011;10453;50.810;12.540;2024-01-30T13:35:10;14.38;;;8.40;;
20589;SDS011;10453;50.810;12.540;2024-01-30T13:39:28;12.70;;;7.82;;
20589;SDS011;10453;50.810;12.540;2024-01-30T13:43:52;12.88;;;7.55;;
20589;SDS011;10453;50.810;12.540;2024-01-30T13:48:09;11.15;;;7.32;;
20589;SDS011;10453;50.810;12.540;2024-01-30T13:52:27;15.05;;;7.28;;
20589;SDS011;10453;50.810;12.540;2024-01-30T13:56:54;11.48;;;7.10;;
20589;SDS011;10453;50.810;12.540;2024-01-30T14:01:11;13.50;;;7.20;;
20589;SDS011;10453;50.810;12.540;2024-01-30T14:05:29;11.43;;;7.28;;
20589;SDS011;10453;50.810;12.540;2024-01-30T14:09:47;10.98;;;7.07;;
20589;SDS011;10453;50.810;12.540;2024-01-30T14:14:05;12.88;;;7.25;;
20589;SDS011;10453;50.810;12.540;2024-01-30T14:18:23;10.23;;;6.45;;
20589;SDS011;10453;50.810;12.540;2024-01-30T14:22:40;10.75;;;7.18;;
20589;SDS011;10453;50.810;12.540;2024-01-30T14:26:58;10.13;;;6.78;;
20589;SDS011;10453;50.810;12.540;2024-01-30T14:31:16;10.30;;;6.60;;
20589;SDS011;10453;50.810;12.540;2024-01-30T14:35:35;12.10;;;6.85;;
20589;SDS011;10453;50.810;12.540;2024-01-30T14:39:53;13.07;;;7.18;;
20589;SDS011;10453;50.810;12.540;2024-01-30T14:44:11;11.60;;;6.97;;
20589;SDS011;10453;50.810;12.540;2024-01-30T14:48:28;10.90;;;7.13;;
20589;SDS011;10453;50.810;12.540;2024-01-30T14:52:46;14.70;;;7.40;;
20589;SDS011;10453;50.810;12.540;2024-01-30T14:57:03;12.38;;;7.82;;
20589;SDS011;10453;50.810;12.540;2024-01-30T15:01:21;10.33;;;7.77;;
20589;SDS011;10453;50.810;12.540;2024-01-30T15:05:39;11.95;;;7.57;;
20589;SDS011;10453;50.810;12.540;2024-01-30T15:09:57;11.07;;;7.32;;
20589;SDS011;10453;50.810;12.540;2024-01-30T15:14:15;12.85;;;8.00;;
20589;SDS011;10453;50.810;12.540;2024-01-30T15:18:33;12.70;;;8.02;;
20589;SDS011;10453;50.810;12.540;2024-01-30T15:22:51;13.18;;;7.75;;
20589;SDS011;10453;50.810;12.540;2024-01-30T15:27:08;14.32;;;8.65;;
20589;SDS011;10453;50.810;12.540;2024-01-30T15:31:26;14.27;;;9.60;;
20589;SDS011;10453;50.810;12.540;2024-01-30T15:35:44;12.55;;;8.98;;
20589;SDS011;10453;50.810;12.540;2024-01-30T15:40:02;13.80;;;8.10;;
20589;SDS011;10453;50.810;12.540;2024-01-30T15:44:20;12.00;;;7.88;;
20589;SDS011;10453;50.810;12.540;2024-01-30T15:48:37;11.25;;;6.95;;
20589;SDS011;10453;50.810;12.540;2024-01-30T15:57:13;11.43;;;7.40;;
20589;SDS011;10453;50.810;12.540;2024-01-30T16:01:31;15.48;;;7.93;;
20589;SDS011;10453;50.810;12.540;2024-01-30T16:05:49;11.75;;;7.10;;
20589;SDS011;10453;50.810;12.540;2024-01-30T16:10:06;11.40;;;7.22;;
20589;SDS011;10453;50.810;12.540;2024-01-30T16:14:24;15.80;;;7.80;;
20589;SDS011;10453;50.810;12.540;2024-01-30T16:18:41;10.00;;;7.93;;
20589;SDS011;10453;50.810;12.540;2024-01-30T16:22:59;19.35;;;8.05;;
20589;SDS011;10453;50.810;12.540;2024-01-30T16:27:16;25.85;;;11.63;;
20589;SDS011;10453;50.810;12.540;2024-01-30T16:31:35;16.42;;;8.45;;
20589;SDS011;10453;50.810;12.540;2024-01-30T16:35:53;13.52;;;9.10;;
20589;SDS011;10453;50.810;12.540;2024-01-30T16:40:10;12.77;;;8.02;;
20589;SDS011;10453;50.810;12.540;2024-01-30T16:44:27;11.50;;;7.57;;
20589;SDS011;10453;50.810;12.540;2024-01-30T16:48:48;12.15;;;8.32;;
20589;SDS011;10453;50.810;12.540;2024-01-30T16:53:07;15.57;;;7.90;;
20589;SDS011;10453;50.810;12.540;2024-01-30T16:57:24;15.65;;;7.53;;
20589;SDS011;10453;50.810;12.540;2024-01-30T17:01:41;12.77;;;7.63;;
20589;SDS011;10453;50.810;12.540;2024-01-30T17:06:01;15.52;;;7.13;;
20589;SDS011;10453;50.810;12.540;2024-01-30T17:10:22;12.18;;;8.05;;
20589;SDS011;10453;50.810;12.540;2024-01-30T17:14:39;13.35;;;7.78;;
20589;SDS011;10453;50.810;12.540;2024-01-30T17:18:58;12.65;;;8.25;;
20589;SDS011;10453;50.810;12.540;2024-01-30T17:23:16;12.07;;;7.13;;
20589;SDS011;10453;50.810;12.540;2024-01-30T17:27:33;12.50;;;8.05;;
20589;SDS011;10453;50.810;12.540;2024-01-30T17:31:50;13.25;;;7.80;;
20589;SDS011;10453;50.810;12.540;2024-01-30T17:36:08;15.10;;;8.35;;
20589;SDS011;10453;50.810;12.540;2024-01-30T17:40:25;14.90;;;7.38;;
20589;SDS011;10453;50.810;12.540;2024-01-30T17:44:42;14.07;;;7.32;;
20589;SDS011;10453;50.810;12.540;2024-01-30T17:49:00;11.88;;;7.75;;
20589;SDS011;10453;50.810;12.540;2024-01-30T17:53:17;11.77;;;8.07;;
20589;SDS011;10453;50.810;12.540;2024-01-30T17:57:34;13.38;;;8.30;;
20589;SDS011;10453;50.810;12.540;2024-01-30T18:01:51;13.70;;;7.88;;
20589;SDS011;10453;50.810;12.540;2024-01-30T18:06:12;11.85;;;7.45;;
20589;SDS011;10453;50.810;12.540;2024-01-30T18:10:31;10.13;;;7.05;;
20589;SDS011;10453;50.810;12.540;2024-01-30T18:14:48;13.52;;;7.30;;
20589;SDS011;10453;50.810;12.540;2024-01-30T18:19:06;13.60;;;7.32;;
20589;SDS011;10453;50.810;12.540;2024-01-30T18:23:23;11.18;;;7.05;;
20589;SDS011;10453;50.810;12.540;2024-01-30T18:27:41;11.77;;;7.90;;
20589;SDS011;10453;50.810;12.540;2024-01-30T18:32:00;12.18;;;7.82;;
20589;SDS011;10453;50.810;12.540;2024-01-30T18:36:18;11.40;;;8.43;;
20589;SDS011;10453;50.810;12.540;2024-01-30T18:40:36;11.30;;;7.63;;
20589;SDS011;10453;50.810;12.540;2024-01-30T18:44:53;10.45;;;7.65;;
20589;SDS011;10453;50.810;12.540;2024-01-30T18:49:10;11.90;;;7.78;;
20589;SDS011;10453;50.810;12.540;2024-01-30T18:53:28;10.60;;;7.30;;
20589;SDS011;10453;50.810;12.540;2024-01-30T18:57:45;12.77;;;9.20;;
20589;SDS011;10453;50.810;12.540;2024-01-30T19:02:03;13.68;;;8.68;;
20589;SDS011;10453;50.810;12.540;2024-01-30T19:06:21;13.40;;;8.33;;
20589;SDS011;10453;50.810;12.540;2024-01-30T19:10:38;13.00;;;8.57;;
20589;SDS011;10453;50.810;12.540;2024-01-30T19:15:00;16.60;;;8.95;;
20589;SDS011;10453;50.810;12.540;2024-01-30T19:19:19;14.32;;;7.65;;
20589;SDS011;10453;50.810;12.540;2024-01-30T19:23:38;13.93;;;8.07;;
20589;SDS011;10453;50.810;12.540;2024-01-30T19:27:56;11.83;;;7.23;;
20589;SDS011;10453;50.810;12.540;2024-01-30T19:32:16;11.15;;;7.50;;
20589;SDS011;10453;50.810;12.540;2024-01-30T19:36:34;13.13;;;7.57;;
20589;SDS011;10453;50.810;12.540;2024-01-30T19:45:10;14.05;;;8.32;;
20589;SDS011;10453;50.810;12.540;2024-01-30T19:49:28;13.13;;;8.65;;
20589;SDS011;10453;50.810;12.540;2024-01-30T19:53:48;19.60;;;8.95;;
20589;SDS011;10453;50.810;12.540;2024-01-30T19:58:05;17.85;;;9.23;;
20589;SDS011;10453;50.810;12.540;2024-01-30T20:02:23;13.10;;;8.18;;
20589;SDS011;10453;50.810;12.540;2024-01-30T20:06:42;13.48;;;8.13;;
20589;SDS011;10453;50.810;12.540;2024-01-30T20:10:59;12.15;;;7.93;;
20589;SDS011;10453;50.810;12.540;2024-01-30T20:15:19;11.93;;;8.18;;
20589;SDS011;10453;50.810;12.540;2024-01-30T20:19:37;12.57;;;8.90;;
20589;SDS011;10453;50.810;12.540;2024-01-30T20:23:56;12.05;;;7.72;;
20589;SDS011;10453;50.810;12.540;2024-01-30T20:28:14;15.05;;;9.40;;
20589;SDS011;10453;50.810;12.540;2024-01-30T20:32:33;14.40;;;8.57;;
20589;SDS011;10453;50.810;12.540;2024-01-30T20:36:51;14.83;;;8.50;;
20589;SDS011;10453;50.810;12.540;2024-01-30T20:41:10;14.80;;;8.80;;
20589;SDS011;10453;50.810;12.540;2024-01-30T20:45:28;15.55;;;9.65;;
20589;SDS011;10453;50.810;12.540;2024-01-30T20:49:45;13.80;;;9.35;;
20589;SDS011;10453;50.810;12.540;2024-01-30T20:54:02;15.25;;;9.15;;
20589;SDS011;10453;50.810;12.540;2024-01-30T20:58:20;15.90;;;9.02;;
20589;SDS011;10453;50.810;12.540;2024-01-30T21:02:37;15.05;;;9.45;;
20589;SDS011;10453;50.810;12.540;2024-01-30T21:06:56;13.35;;;9.75;;
20589;SDS011;10453;50.810;12.540;2024-01-30T21:11:14;13.87;;;9.70;;
20589;SDS011;10453;50.810;12.540;2024-01-30T21:15:37;14.07;;;9.95;;
20589;SDS011;10453;50.810;12.540;2024-01-30T21:19:55;14.23;;;9.07;;
20589;SDS011;10453;50.810;12.540;2024-01-30T21:24:12;12.68;;;9.10;;
20589;SDS011;10453;50.810;12.540;2024-01-30T21:28:30;15.98;;;10.45;;
20589;SDS011;10453;50.810;12.540;2024-01-30T21:32:47;14.10;;;9.97;;
20589;SDS011;10453;50.810;12.540;2024-01-30T21:37:04;14.55;;;9.85;;
20589;SDS011;10453;50.810;12.540;2024-01-30T21:41:22;14.93;;;10.23;;
20589;SDS011;10453;50.810;12.540;2024-01-30T21:45:39;15.13;;;10.50;;
20589;SDS011;10453;50.810;12.540;2024-01-30T21:49:56;15.85;;;10.25;;
20589;SDS011;10453;50.810;12.540;2024-01-30T21:54:14;16.38;;;10.30;;
20589;SDS011;10453;50.810;12.540;2024-01-30T21:58:31;15.18;;;10.85;;
20589;SDS011;10453;50.810;12.540;2024-01-30T22:02:48;16.73;;;10.52;;
20589;SDS011;10453;50.810;12.540;2024-01-30T22:07:06;15.52;;;10.30;;
20589;SDS011;10453;50.810;12.540;2024-01-30T22:11:23;13.05;;;9.85;;
20589;SDS011;10453;50.810;12.540;2024-01-30T22:15:41;17.38;;;10.98;;
20589;SDS011;10453;50.810;12.540;2024-01-30T22:19:59;15.32;;;10.23;;
20589;SDS011;10453;50.810;12.540;2024-01-30T22:24:16;19.15;;;11.15;;
20589;SDS011;10453;50.810;12.540;2024-01-30T22:28:33;16.42;;;10.90;;
20589;SDS011;10453;50.810;12.540;2024-01-30T22:32:51;17.17;;;10.27;;
20589;SDS011;10453;50.810;12.540;2024-01-30T22:37:09;17.73;;;10.73;;
20589;SDS011;10453;50.810;12.540;2024-01-30T22:41:26;14.82;;;10.30;;
20589;SDS011;10453;50.810;12.540;2024-01-30T22:50:02;16.60;;;10.32;;
20589;SDS011;10453;50.810;12.540;2024-01-30T22:54:20;16.27;;;10.30;;
20589;SDS011;10453;50.810;12.540;2024-01-30T22:58:38;16.17;;;10.15;;
20589;SDS011;10453;50.810;12.540;2024-01-30T23:02:56;17.08;;;11.15;;
20589;SDS011;10453;50.810;12.540;2024-01-30T23:07:13;14.65;;;10.77;;
20589;SDS011;10453;50.810;12.540;2024-01-30T23:11:33;14.43;;;10.13;;
20589;SDS011;10453;50.810;12.540;2024-01-30T23:15:50;15.23;;;9.65;;
20589;SDS011;10453;50.810;12.540;2024-01-30T23:20:08;17.93;;;10.20;;
20589;SDS011;10453;50.810;12.540;2024-01-30T23:24:26;14.82;;;10.13;;
20589;SDS011;10453;50.810;12.540;2024-01-30T23:28:43;16.23;;;10.02;;
20589;SDS011;10453;50.810;12.540;2024-01-30T23:33:01;17.35;;;9.88;;
20589;SDS011;10453;50.810;12.540;2024-01-30T23:37:18;15.30;;;9.32;;
20589;SDS011;10453;50.810;12.540;2024-01-30T23:41:36;15.52;;;10.07;;
20589;SDS011;10453;50.810;12.540;2024-01-30T23:45:53;15.18;;;9.80;;
20589;SDS011;10453;50.810;12.540;2024-01-30T23:50:10;15.43;;;10.68;;
20589;SDS011;10453;50.810;12.540;2024-01-30T23:54:29;17.48;;;11.30;;
20589;SDS011;10453;50.810;12.540;2024-01-30T23:58:46;14.57;;;10.05;;
